Time,TemperatureF,DewpointF,PressureIn,WindDirection,WindDirectionDegrees,WindSpeedMPH,WindSpeedGustMPH,Humidity,HourlyPrecipIn,Conditions,Clouds,dailyrainin,SolarRadiationWatts/m^2,SoftwareType,DateUTC
2013-09-19 00:02:00,45.4,44.0,30.17,NE,53,0.0,0.0,94,0.00,,,0.00,0,weatherlink.com 1.10,2013-09-19 04:02:00,
2013-09-19 00:17:00,45.2,44.0,30.17,NE,53,0.0,2.0,95,0.00,,,0.00,0,weatherlink.com 1.10,2013-09-19 04:17:00,
2013-09-19 00:32:00,44.7,43.0,30.16,NE,53,0.0,0.0,95,0.00,,,0.00,0,weatherlink.com 1.10,2013-09-19 04:32:00,
2013-09-19 00:47:00,44.0,43.0,30.16,NE,53,0.0,0.0,96,0.00,,,0.00,0,weatherlink.com 1.10,2013-09-19 04:47:00,
2013-09-19 01:02:00,44.2,43.0,30.16,NE,53,0.0,2.0,96,0.00,,,0.00,0,weatherlink.com 1.10,2013-09-19 05:02:00,
2013-09-19 01:17:00,44.5,44.0,30.16,NE,53,0.0,2.0,96,0.00,,,0.00,0,weatherlink.com 1.10,2013-09-19 05:17:00,
2013-09-19 01:32:00,43.7,43.0,30.16,NE,53,1.0,1.0,96,0.00,,,0.00,0,weatherlink.com 1.10,2013-09-19 05:32:00,
2013-09-19 01:47:00,44.0,43.0,30.16,NE,53,0.0,2.0,96,0.00,,,0.00,0,weatherlink.com 1.10,2013-09-19 05:47:00,
2013-09-19 02:02:00,42.6,42.0,30.16,NE,53,0.0,0.0,96,0.00,,,0.00,0,weatherlink.com 1.10,2013-09-19 06:02:00,
2013-09-19 02:17:00,41.8,41.0,30.16,NE,53,0.0,0.0,96,0.00,,,0.00,0,weatherlink.com 1.10,2013-09-19 06:17:00,
2013-09-19 02:32:00,41.9,41.0,30.16,NE,53,0.0,0.0,96,0.00,,,0.00,0,weatherlink.com 1.10,2013-09-19 06:32:00,
2013-09-19 02:47:00,41.9,41.0,30.15,NE,53,0.0,1.0,97,0.00,,,0.00,0,weatherlink.com 1.10,2013-09-19 06:47:00,
2013-09-19 03:02:00,41.8,41.0,30.15,NE,53,0.0,1.0,97,0.00,,,0.00,0,weatherlink.com 1.10,2013-09-19 07:02:00,
2013-09-19 03:18:00,41.7,41.0,30.15,NE,53,0.0,2.0,97,0.00,,,0.00,0,weatherlink.com 1.10,2013-09-19 07:18:00,
2013-09-19 03:33:00,42.0,41.0,30.14,NE,53,0.0,2.0,97,0.00,,,0.00,0,weatherlink.com 1.10,2013-09-19 07:33:00,
2013-09-19 03:48:00,42.4,42.0,30.14,NE,53,0.0,1.0,97,0.00,,,0.00,0,weatherlink.com 1.10,2013-09-19 07:48:00,
2013-09-19 04:03:00,42.2,41.0,30.14,NE,53,0.0,1.0,97,0.00,,,0.00,0,weatherlink.com 1.10,2013-09-19 08:03:00,
2013-09-19 04:18:00,42.1,41.0,30.14,NE,53,0.0,2.0,97,0.00,,,0.00,0,weatherlink.com 1.10,2013-09-19 08:18:00,
2013-09-19 04:33:00,41.7,41.0,30.14,NE,53,0.0,1.0,97,0.00,,,0.00,0,weatherlink.com 1.10,2013-09-19 08:33:00,
2013-09-19 04:48:00,41.5,41.0,30.14,ENE,59,0.0,2.0,97,0.00,,,0.00,0,weatherlink.com 1.10,2013-09-19 08:48:00,
2013-09-19 05:03:00,41.4,41.0,30.14,ENE,63,0.0,1.0,97,0.00,,,0.00,0,weatherlink.com 1.10,2013-09-19 09:03:00,
2013-09-19 05:18:00,41.1,40.0,30.14,ENE,63,0.0,1.0,97,0.00,,,0.00,0,weatherlink.com 1.10,2013-09-19 09:18:00,
2013-09-19 05:33:00,41.0,40.0,30.14,ENE,66,1.0,2.0,97,0.00,,,0.00,0,weatherlink.com 1.10,2013-09-19 09:33:00,
2013-09-19 05:48:00,41.7,41.0,30.14,ENE,66,0.0,1.0,97,0.00,,,0.00,0,weatherlink.com 1.10,2013-09-19 09:48:00,
2013-09-19 06:04:00,42.5,42.0,30.14,ENE,66,0.0,2.0,97,0.00,,,0.00,0,weatherlink.com 1.10,2013-09-19 10:04:00,
2013-09-19 06:18:00,43.1,42.0,30.14,ENE,66,0.0,1.0,97,0.00,,,0.00,0,weatherlink.com 1.10,2013-09-19 10:18:00,
2013-09-19 06:33:00,43.1,42.0,30.14,ENE,66,0.0,0.0,97,0.00,,,0.00,0,weatherlink.com 1.10,2013-09-19 10:33:00,
2013-09-19 06:48:00,42.7,42.0,30.15,ENE,66,0.0,0.0,97,0.00,,,0.00,7,weatherlink.com 1.10,2013-09-19 10:48:00,
2013-09-19 07:03:00,42.7,42.0,30.16,ENE,66,0.0,0.0,97,0.00,,,0.00,11,weatherlink.com 1.10,2013-09-19 11:03:00,
2013-09-19 07:18:00,43.1,42.0,30.15,ENE,66,0.0,0.0,97,0.00,,,0.00,14,weatherlink.com 1.10,2013-09-19 11:18:00,
2013-09-19 07:48:00,44.4,44.0,30.15,ENE,66,0.0,1.0,98,0.00,,,0.00,19,weatherlink.com 1.10,2013-09-19 11:48:00,
2013-09-19 08:03:00,45.6,45.0,30.15,ENE,66,1.0,2.0,98,0.00,,,0.00,23,weatherlink.com 1.10,2013-09-19 12:03:00,
2013-09-19 08:18:00,47.3,47.0,30.15,ENE,66,0.0,0.0,98,0.00,,,0.00,26,weatherlink.com 1.10,2013-09-19 12:18:00,
2013-09-19 08:33:00,49.2,48.0,30.14,ENE,66,0.0,1.0,97,0.00,,,0.00,28,weatherlink.com 1.10,2013-09-19 12:33:00,
2013-09-19 08:48:00,51.0,50.0,30.14,ENE,66,0.0,1.0,95,0.00,,,0.00,30,weatherlink.com 1.10,2013-09-19 12:48:00,
2013-09-19 09:04:00,54.0,51.0,30.14,ENE,66,0.0,2.0,90,0.00,,,0.00,346,weatherlink.com 1.10,2013-09-19 13:04:00,
2013-09-19 09:18:00,56.3,51.0,30.15,ENE,66,0.0,2.0,83,0.00,,,0.00,387,weatherlink.com 1.10,2013-09-19 13:18:00,
2013-09-19 09:33:00,58.0,53.0,30.15,ENE,66,2.0,2.0,83,0.00,,,0.00,432,weatherlink.com 1.10,2013-09-19 13:33:00,
2013-09-19 09:48:00,59.2,51.0,30.14,SE,128,0.0,3.0,73,0.01,,,0.01,487,weatherlink.com 1.10,2013-09-19 13:48:00,
2013-09-19 10:03:00,60.4,51.0,30.14,SE,137,1.0,2.0,71,0.01,,,0.01,524,weatherlink.com 1.10,2013-09-19 14:03:00,
2013-09-19 10:18:00,61.8,53.0,30.14,SSE,164,0.0,3.0,72,0.01,,,0.01,561,weatherlink.com 1.10,2013-09-19 14:18:00,
2013-09-19 10:34:00,63.2,53.0,30.14,South,186,4.0,4.0,69,0.01,,,0.01,596,weatherlink.com 1.10,2013-09-19 14:34:00,
2013-09-19 10:49:00,64.5,53.0,30.13,SSW,199,0.0,5.0,66,0.00,,,0.01,628,weatherlink.com 1.10,2013-09-19 14:49:00,
2013-09-19 11:04:00,65.7,53.0,30.13,WSW,247,3.0,4.0,63,0.00,,,0.01,657,weatherlink.com 1.10,2013-09-19 15:04:00,
2013-09-19 11:19:00,66.2,54.0,30.13,SW,234,0.0,5.0,64,0.00,,,0.01,682,weatherlink.com 1.10,2013-09-19 15:19:00,
2013-09-19 11:34:00,66.9,52.0,30.13,SSW,202,0.0,6.0,60,0.00,,,0.01,705,weatherlink.com 1.10,2013-09-19 15:34:00,
2013-09-19 11:49:00,68.3,53.0,30.13,ESE,109,0.0,5.0,59,0.00,,,0.01,722,weatherlink.com 1.10,2013-09-19 15:49:00,
2013-09-19 12:04:00,68.5,52.0,30.12,SSE,163,2.0,7.0,57,0.00,,,0.01,737,weatherlink.com 1.10,2013-09-19 16:04:00,
2013-09-19 12:19:00,69.6,54.0,30.12,WSW,241,2.0,6.0,58,0.00,,,0.01,749,weatherlink.com 1.10,2013-09-19 16:19:00,
2013-09-19 12:34:00,70.1,51.0,30.12,SSW,192,4.0,5.0,51,0.00,,,0.01,759,weatherlink.com 1.10,2013-09-19 16:34:00,
2013-09-19 12:49:00,70.9,48.0,30.12,SSW,207,2.0,7.0,44,0.00,,,0.01,765,weatherlink.com 1.10,2013-09-19 16:49:00,
2013-09-19 13:04:00,72.0,46.0,30.11,WSW,238,1.0,5.0,39,0.00,,,0.01,766,weatherlink.com 1.10,2013-09-19 17:04:00,
2013-09-19 13:19:00,71.7,40.0,30.11,South,184,0.0,5.0,32,0.00,,,0.01,763,weatherlink.com 1.10,2013-09-19 17:19:00,
2013-09-19 13:34:00,71.8,41.0,30.10,SSE,168,1.0,6.0,33,0.00,,,0.01,752,weatherlink.com 1.10,2013-09-19 17:34:00,
2013-09-19 13:49:00,72.6,39.0,30.09,SW,235,5.0,7.0,30,0.00,,,0.01,744,weatherlink.com 1.10,2013-09-19 17:49:00,
2013-09-19 14:04:00,72.9,39.0,30.09,South,188,1.0,7.0,29,0.00,,,0.01,728,weatherlink.com 1.10,2013-09-19 18:04:00,
2013-09-19 14:19:00,73.4,42.0,30.08,South,186,0.0,6.0,32,0.00,,,0.01,710,weatherlink.com 1.10,2013-09-19 18:19:00,
2013-09-19 14:34:00,74.0,45.0,30.07,SSW,213,1.0,7.0,35,0.00,,,0.01,687,weatherlink.com 1.10,2013-09-19 18:34:00,
2013-09-19 14:49:00,74.1,47.0,30.07,NNW,337,1.0,5.0,38,0.00,,,0.01,661,weatherlink.com 1.10,2013-09-19 18:49:00,
2013-09-19 15:04:00,75.1,46.0,30.06,West,268,5.0,5.0,35,0.00,,,0.01,633,weatherlink.com 1.10,2013-09-19 19:04:00,
2013-09-19 15:19:00,75.0,42.0,30.06,SSW,198,3.0,5.0,31,0.00,,,0.01,603,weatherlink.com 1.10,2013-09-19 19:19:00,
2013-09-19 15:34:00,75.1,43.0,30.06,South,187,2.0,7.0,32,0.00,,,0.01,570,weatherlink.com 1.10,2013-09-19 19:34:00,
2013-09-19 15:49:00,74.9,41.0,30.06,WNW,288,4.0,6.0,30,0.00,,,0.01,536,weatherlink.com 1.10,2013-09-19 19:49:00,
2013-09-19 16:04:00,75.0,43.0,30.05,SSW,209,4.0,7.0,32,0.00,,,0.01,496,weatherlink.com 1.10,2013-09-19 20:04:00,
2013-09-19 16:19:00,74.3,46.0,30.05,South,191,3.0,6.0,37,0.00,,,0.01,452,weatherlink.com 1.10,2013-09-19 20:19:00,
2013-09-19 16:34:00,73.6,48.0,30.05,SW,221,3.0,6.0,41,0.00,,,0.01,74,weatherlink.com 1.10,2013-09-19 20:34:00,
2013-09-19 16:49:00,72.8,52.0,30.05,SW,216,1.0,7.0,48,0.00,,,0.01,172,weatherlink.com 1.10,2013-09-19 20:49:00,
2013-09-19 17:04:00,72.2,54.0,30.05,SSW,198,4.0,7.0,54,0.00,,,0.01,74,weatherlink.com 1.10,2013-09-19 21:04:00,
2013-09-19 17:19:00,71.3,54.0,30.05,WSW,241,1.0,7.0,55,0.00,,,0.01,44,weatherlink.com 1.10,2013-09-19 21:19:00,
2013-09-19 17:34:00,70.5,53.0,30.05,SSW,209,2.0,7.0,54,0.00,,,0.01,35,weatherlink.com 1.10,2013-09-19 21:34:00,
2013-09-19 17:49:00,69.6,53.0,30.05,South,190,2.0,6.0,56,0.00,,,0.01,25,weatherlink.com 1.10,2013-09-19 21:49:00,
2013-09-19 18:05:00,68.6,53.0,30.05,SW,234,0.0,4.0,58,0.00,,,0.01,25,weatherlink.com 1.10,2013-09-19 22:05:00,
2013-09-19 18:20:00,67.2,55.0,30.06,WNW,299,0.0,2.0,66,0.00,,,0.01,16,weatherlink.com 1.10,2013-09-19 22:20:00,
2013-09-19 18:35:00,65.0,56.0,30.06,WNW,299,0.0,2.0,72,0.00,,,0.01,11,weatherlink.com 1.10,2013-09-19 22:35:00,
2013-09-19 18:50:00,62.6,55.0,30.05,NNE,24,0.0,4.0,77,0.00,,,0.01,5,weatherlink.com 1.10,2013-09-19 22:50:00,
2013-09-19 19:05:00,60.2,55.0,30.06,NNE,24,1.0,1.0,82,0.00,,,0.01,0,weatherlink.com 1.10,2013-09-19 23:05:00,
2013-09-19 19:20:00,58.5,53.0,30.06,NNE,24,1.0,2.0,83,0.00,,,0.01,0,weatherlink.com 1.10,2013-09-19 23:20:00,
2013-09-19 19:35:00,57.3,53.0,30.07,NNE,24,3.0,4.0,84,0.00,,,0.01,0,weatherlink.com 1.10,2013-09-19 23:35:00,
2013-09-19 19:50:00,56.1,52.0,30.07,NNE,24,3.0,3.0,86,0.00,,,0.01,0,weatherlink.com 1.10,2013-09-19 23:50:00,
2013-09-19 20:05:00,55.5,52.0,30.07,NNE,24,0.0,3.0,87,0.00,,,0.01,0,weatherlink.com 1.10,2013-09-20 00:05:00,
2013-09-19 20:20:00,54.2,51.0,30.08,NNE,24,0.0,0.0,89,0.00,,,0.01,0,weatherlink.com 1.10,2013-09-20 00:20:00,
2013-09-19 20:35:00,53.7,51.0,30.08,NNE,24,1.0,3.0,89,0.00,,,0.01,0,weatherlink.com 1.10,2013-09-20 00:35:00,
2013-09-19 20:50:00,53.1,50.0,30.08,NNE,24,0.0,2.0,89,0.00,,,0.01,0,weatherlink.com 1.10,2013-09-20 00:50:00,
2013-09-19 21:05:00,52.1,49.0,30.08,NNE,24,0.0,3.0,90,0.00,,,0.01,0,weatherlink.com 1.10,2013-09-20 01:05:00,
2013-09-19 21:20:00,52.0,50.0,30.08,NNE,24,1.0,4.0,91,0.00,,,0.01,0,weatherlink.com 1.10,2013-09-20 01:20:00,
2013-09-19 21:35:00,51.2,49.0,30.08,NNE,24,0.0,3.0,92,0.00,,,0.01,0,weatherlink.com 1.10,2013-09-20 01:35:00,
2013-09-19 21:50:00,51.2,49.0,30.08,NNE,24,0.0,0.0,92,0.00,,,0.01,0,weatherlink.com 1.10,2013-09-20 01:50:00,
2013-09-19 22:05:00,50.4,48.0,30.08,NNE,24,1.0,3.0,92,0.00,,,0.01,0,weatherlink.com 1.10,2013-09-20 02:05:00,
2013-09-19 22:20:00,50.0,48.0,30.08,NNE,24,0.0,0.0,92,0.00,,,0.01,0,weatherlink.com 1.10,2013-09-20 02:20:00,
2013-09-19 22:35:00,49.5,47.0,30.08,NNE,24,1.0,2.0,92,0.00,,,0.01,0,weatherlink.com 1.10,2013-09-20 02:35:00,
2013-09-19 22:50:00,49.7,47.0,30.08,NNE,24,1.0,2.0,91,0.00,,,0.01,0,weatherlink.com 1.10,2013-09-20 02:50:00,
2013-09-19 23:05:00,49.2,47.0,30.08,NNE,24,1.0,2.0,92,0.00,,,0.01,0,weatherlink.com 1.10,2013-09-20 03:05:00,
2013-09-19 23:20:00,48.8,47.0,30.07,NNE,24,0.0,2.0,92,0.00,,,0.01,0,weatherlink.com 1.10,2013-09-20 03:20:00,
2013-09-19 23:35:00,47.7,46.0,30.08,NNE,24,0.0,0.0,94,0.00,,,0.01,0,weatherlink.com 1.10,2013-09-20 03:35:00,
2013-09-19 23:50:00,48.2,47.0,30.07,NNE,24,0.0,0.0,94,0.00,,,0.01,0,weatherlink.com 1.10,2013-09-20 03:50:00,